Time;durP1;ratioP1;P1;durP2;ratioP2;P2;SDS_P1;SDS_P2;PMS_P1;PMS_P2;Temp;Humidity;BMP_temperature;BMP_pressure;BME280_temperature;BME280_humidity;BME280_pressure;Samples;Min_cycle;Max_cycle;Signal;HPM_P1;HPM_P2
2023/03/30 00:07:41;;;;;;;25.75;15.32;;;3.40;99.90;;;;;;20446388;29;20047;-51
2023/03/30 00:17:43;;;;;;;23.55;13.82;;;3.70;99.90;;;;;;20441010;29;20044;-49
2023/03/30 00:27:45;;;;;;;21.27;12.35;;;3.90;99.90;;;;;;20399288;29;20039;-54
2023/03/30 00:37:48;;;;;;;22.95;11.98;;;4.10;99.90;;;;;;20421500;29;20433;-50
2023/03/30 00:48:04;;;;;;;24.35;11.40;;;4.30;99.90;;;;;;20444848;29;20035;-53
2023/03/30 00:58:08;;;;;;;18.77;9.73;;;4.20;99.90;;;;;;20475097;29;20034;-49
2023/03/30 01:08:12;;;;;;;20.10;10.25;;;4.10;99.90;;;;;;20419577;29;20194;-53
2023/03/30 01:18:29;;;;;;;18.45;9.57;;;4.10;99.90;;;;;;20400114;29;20565;-46
2023/03/30 01:28:56;;;;;;;21.05;10.70;;;4.10;99.90;;;;;;20454749;29;20072;-49
2023/03/30 01:39:00;;;;;;;23.55;12.00;;;4.10;99.90;;;;;;20428249;29;20035;-50
2023/03/30 01:49:16;;;;;;;21.27;10.48;;;4.00;99.90;;;;;;20433352;29;20032;-51
2023/03/30 01:59:28;;;;;;;17.65;9.77;;;3.90;99.90;;;;;;20434335;29;20036;-45
2023/03/30 02:09:31;;;;;;;22.20;11.50;;;3.70;99.90;;;;;;20468911;29;20102;-53
2023/03/30 02:19:32;;;;;;;21.23;12.48;;;3.60;99.90;;;;;;20430672;29;20036;-48
2023/03/30 02:29:38;;;;;;;29.02;13.20;;;3.40;99.90;;;;;;20430126;29;20027;-52
2023/03/30 02:39:58;;;;;;;25.63;14.52;;;3.30;99.90;;;;;;20429892;29;20153;-51
2023/03/30 02:50:16;;;;;;;23.60;13.90;;;3.20;99.90;;;;;;20468811;29;20047;-52
2023/03/30 03:00:22;;;;;;;27.58;16.10;;;3.30;99.90;;;;;;20446305;29;20477;-50
2023/03/30 03:10:25;;;;;;;27.60;15.02;;;3.30;99.90;;;;;;20410532;29;20092;-53
2023/03/30 03:20:29;;;;;;;26.38;14.98;;;3.30;99.90;;;;;;20422286;29;20052;-53
2023/03/30 03:30:33;;;;;;;25.55;15.52;;;3.20;99.90;;;;;;20444556;29;20042;-51
2023/03/30 03:40:41;;;;;;;41.13;18.05;;;3.20;99.90;;;;;;20423846;29;20024;-51
2023/03/30 03:50:44;;;;;;;26.95;15.80;;;3.00;99.90;;;;;;20424737;29;20052;-49
2023/03/30 04:00:47;;;;;;;30.48;16.63;;;2.90;99.90;;;;;;20422614;29;20031;-50
2023/03/30 04:10:49;;;;;;;30.40;17.50;;;2.90;99.90;;;;;;20464541;29;20489;-53
2023/03/30 04:21:01;;;;;;;;;;;2.90;99.90;;;;;;20416534;29;20036;-51
2023/03/30 04:31:33;;;;;;;29.88;18.67;;;2.80;99.90;;;;;;20402940;29;19918;-53
2023/03/30 04:42:01;;;;;;;42.92;22.27;;;2.60;99.90;;;;;;20403594;29;20094;-52
2023/03/30 04:52:32;;;;;;;40.85;23.13;;;2.60;99.90;;;;;;20465815;29;20405;-52
2023/03/30 05:02:54;;;;;;;36.45;18.40;;;2.50;99.90;;;;;;20421858;29;20130;-52
2023/03/30 05:13:18;;;;;;;39.53;21.70;;;2.40;99.90;;;;;;20431054;29;20548;-51
2023/03/30 05:23:31;;;;;;;38.90;20.63;;;2.30;99.90;;;;;;20436346;29;20035;-50
2023/03/30 05:33:43;;;;;;;43.72;22.08;;;2.60;99.90;;;;;;20424215;29;20349;-52
2023/03/30 05:44:21;;;;;;;34.20;18.30;;;3.00;99.90;;;;;;20196233;29;20049;-50
2023/03/30 05:54:55;;;;;;;36.45;16.05;;;3.60;99.90;;;;;;20194330;29;20048;-55
2023/03/30 06:05:16;;;;;;;;;;;4.00;99.90;;;;;;20174966;29;20451;-52
2023/03/30 06:15:19;;;;;;;25.92;11.38;;;4.50;99.90;;;;;;20309754;29;19974;-53
2023/03/30 06:25:25;;;;;;;14.52;9.43;;;5.10;99.90;;;;;;20457897;29;20039;-53
2023/03/30 06:35:29;;;;;;;24.55;10.18;;;5.80;99.90;;;;;;20427807;29;20040;-50
2023/03/30 06:45:31;;;;;;;14.98;8.25;;;6.40;99.90;;;;;;20446450;29;20031;-47
2023/03/30 06:55:33;;;;;;;15.07;8.90;;;6.90;99.90;;;;;;20496934;29;20481;-49
2023/03/30 07:05:35;;;;;;;15.80;8.95;;;6.80;99.90;;;;;;20426709;29;20048;-51
2023/03/30 07:15:48;;;;;;;18.33;8.55;;;6.50;99.90;;;;;;20410409;29;20144;-50
2023/03/30 07:25:50;;;;;;;14.00;8.25;;;6.20;99.90;;;;;;20421403;29;20027;-53
2023/03/30 07:36:00;;;;;;;17.03;9.67;;;6.40;99.90;;;;;;20443596;29;20039;-50
2023/03/30 07:46:02;;;;;;;15.88;8.57;;;6.50;99.90;;;;;;20450436;29;20461;-46
2023/03/30 07:56:10;;;;;;;20.13;11.13;;;6.80;99.90;;;;;;20403770;29;20477;-54
2023/03/30 08:06:18;;;;;;;20.23;11.43;;;6.90;99.90;;;;;;20435356;29;20141;-48
2023/03/30 08:16:22;;;;;;;26.55;13.00;;;7.00;99.90;;;;;;20433192;29;20106;-49
2023/03/30 08:26:25;;;;;;;25.83;12.70;;;7.10;99.90;;;;;;20421610;29;20040;-52
2023/03/30 08:36:27;;;;;;;23.10;12.77;;;6.90;99.90;;;;;;20421299;29;20043;-53
2023/03/30 08:46:29;;;;;;;22.27;13.18;;;6.80;99.90;;;;;;20434120;28;20481;-52
2023/03/30 08:56:34;;;;;;;18.75;11.18;;;6.80;99.90;;;;;;20487970;29;20079;-52
2023/03/30 09:06:50;;;;;;;24.00;13.23;;;7.20;99.90;;;;;;20420145;29;20131;-52
2023/03/30 09:17:00;;;;;;;24.20;14.45;;;7.70;99.90;;;;;;20418404;29;20040;-50
2023/03/30 09:27:12;;;;;;;21.90;14.03;;;8.00;99.90;;;;;;20451286;29;20142;-50
2023/03/30 09:37:17;;;;;;;22.90;13.60;;;8.00;99.90;;;;;;20418591;29;20046;-53
2023/03/30 09:47:37;;;;;;;27.42;14.15;;;7.90;99.90;;;;;;20418566;29;20075;-52
2023/03/30 09:57:39;;;;;;;24.77;14.97;;;7.70;99.90;;;;;;20424784;29;20031;-47
2023/03/30 10:07:42;;;;;;;29.75;16.35;;;7.90;99.90;;;;;;20455898;29;20051;-52
2023/03/30 10:17:50;;;;;;;29.92;16.73;;;8.60;99.90;;;;;;20449400;29;20123;-49
2023/03/30 10:27:55;;;;;;;23.77;16.42;;;8.80;99.90;;;;;;20430230;29;20046;-52
2023/03/30 10:37:59;;;;;;;27.85;16.48;;;8.80;99.90;;;;;;20430201;29;20574;-52
2023/03/30 10:48:14;;;;;;;31.80;19.50;;;8.40;99.90;;;;;;20455579;29;20094;-47
2023/03/30 10:58:53;;;;;;;36.88;19.30;;;8.10;99.90;;;;;;20482607;29;20070;-52
2023/03/30 11:08:57;;;;;;;30.23;18.77;;;8.10;99.90;;;;;;20416584;29;20052;-53
2023/03/30 11:19:17;;;;;;;25.50;16.63;;;8.00;99.90;;;;;;20421907;29;20454;-49
2023/03/30 11:29:30;;;;;;;36.28;21.63;;;8.00;99.90;;;;;;20444040;29;20071;-53
2023/03/30 11:39:35;;;;;;;26.58;17.75;;;7.90;99.90;;;;;;20426971;29;20036;-51
2023/03/30 11:50:05;;;;;;;31.77;16.40;;;8.00;99.90;;;;;;20425689;29;20078;-51
2023/03/30 12:00:37;;;;;;;21.88;14.60;;;8.20;99.90;;;;;;20423833;29;20047;-52
2023/03/30 12:10:41;;;;;;;24.73;14.60;;;7.70;99.90;;;;;;20466411;29;20048;-51
2023/03/30 12:21:13;;;;;;;12.10;6.65;;;7.50;99.90;;;;;;20441253;28;20115;-51
2023/03/30 12:31:16;;;;;;;18.65;11.35;;;8.00;99.90;;;;;;20421469;29;20035;-51
2023/03/30 12:41:19;;;;;;;11.07;6.72;;;8.20;99.90;;;;;;20421536;29;20032;-50
2023/03/30 12:51:44;;;;;;;6.20;1.95;;;9.80;99.90;;;;;;20472990;29;20477;-53
2023/03/30 13:02:10;;;;;;;3.20;1.70;;;10.50;99.90;;;;;;20446181;29;20096;-49
2023/03/30 13:12:34;;;;;;;3.75;2.58;;;10.20;99.90;;;;;;20419567;29;20028;-50
2023/03/30 13:22:36;;;;;;;7.82;3.33;;;10.00;99.90;;;;;;20432047;29;20090;-48
2023/03/30 13:33:03;;;;;;;3.63;2.33;;;9.50;99.90;;;;;;20446131;29;20040;-53
2023/03/30 13:43:20;;;;;;;4.55;2.60;;;9.70;99.90;;;;;;20434078;29;20035;-53
2023/03/30 13:53:25;;;;;;;6.22;3.28;;;10.20;99.90;;;;;;20433638;29;20056;-51
2023/03/30 14:03:46;;;;;;;5.97;3.63;;;9.80;99.90;;;;;;20432433;29;20094;-46
2023/03/30 14:13:54;;;;;;;7.65;4.55;;;9.50;99.90;;;;;;20474792;29;20035;-50
2023/03/30 14:23:55;;;;;;;7.10;3.35;;;9.60;99.90;;;;;;20426589;29;20095;-53
2023/03/30 14:33:57;;;;;;;5.90;1.90;;;10.00;99.90;;;;;;20409237;29;20087;-53
2023/03/30 14:44:09;;;;;;;9.95;3.72;;;9.80;99.90;;;;;;20428966;29;20039;-52
2023/03/30 14:54:20;;;;;;;5.25;3.05;;;10.40;99.90;;;;;;20504284;29;20027;-49
2023/03/30 15:04:27;;;;;;;8.65;4.70;;;10.10;99.90;;;;;;20433362;29;20107;-50
2023/03/30 15:14:38;;;;;;;13.20;4.90;;;9.40;99.90;;;;;;20454101;29;20090;-49
2023/03/30 15:24:40;;;;;;;11.13;5.90;;;9.00;99.90;;;;;;20454878;29;20505;-50
2023/03/30 15:35:07;;;;;;;11.55;6.07;;;8.50;99.90;;;;;;20422011;29;20050;-52
2023/03/30 15:45:12;;;;;;;12.13;6.45;;;8.10;99.90;;;;;;20456975;29;20524;-47
2023/03/30 15:55:20;;;;;;;12.45;5.70;;;8.00;99.90;;;;;;20498423;28;20036;-53
2023/03/30 16:05:24;;;;;;;9.73;5.25;;;7.80;99.90;;;;;;20423714;29;20040;-49
2023/03/30 16:15:29;;;;;;;15.68;8.38;;;7.60;99.90;;;;;;20422863;29;20127;-50
2023/03/30 16:25:31;;;;;;;13.20;6.70;;;7.40;99.90;;;;;;20418389;29;20047;-52
2023/03/30 16:35:32;;;;;;;10.93;5.95;;;7.40;99.90;;;;;;20420298;29;20485;-53
2023/03/30 16:45:34;;;;;;;11.43;7.25;;;7.40;99.90;;;;;;20456119;29;20058;-47
2023/03/30 16:55:36;;;;;;;14.38;6.50;;;7.30;99.90;;;;;;20473417;29;20404;-53
2023/03/30 17:05:38;;;;;;;12.13;6.57;;;7.30;99.90;;;;;;20419549;29;20052;-52
2023/03/30 17:15:40;;;;;;;14.43;8.93;;;7.10;99.90;;;;;;20419403;29;20405;-51
2023/03/30 17:25:42;;;;;;;11.85;7.85;;;6.90;99.90;;;;;;20413914;29;20078;-51
2023/03/30 17:35:51;;;;;;;7.65;3.90;;;6.80;99.90;;;;;;20450842;29;20035;-52
2023/03/30 17:45:53;;;;;;;9.13;5.22;;;7.00;99.90;;;;;;20453075;29;20038;-47
2023/03/30 17:55:55;;;;;;;9.45;4.72;;;6.90;99.90;;;;;;20417768;29;20533;-53
2023/03/30 18:05:58;;;;;;;9.05;5.57;;;6.80;99.90;;;;;;20427405;29;20098;-50
2023/03/30 18:16:00;;;;;;;11.40;4.30;;;6.80;99.90;;;;;;20451664;29;20087;-50
2023/03/30 18:26:04;;;;;;;8.65;4.25;;;6.70;99.90;;;;;;20426127;29;20358;-52
2023/03/30 18:36:11;;;;;;;8.80;4.20;;;6.70;99.90;;;;;;20430575;29;20453;-50
2023/03/30 18:46:16;;;;;;;8.82;4.38;;;6.50;99.90;;;;;;20442132;29;20382;-49
2023/03/30 18:56:18;;;;;;;10.63;4.80;;;6.50;99.90;;;;;;20498748;29;20461;-53
2023/03/30 19:06:24;;;;;;;7.45;3.72;;;6.50;99.90;;;;;;20428324;29;20497;-52
2023/03/30 19:16:26;;;;;;;7.03;4.57;;;6.50;99.90;;;;;;20427327;29;20032;-52
2023/03/30 19:26:27;;;;;;;10.82;5.07;;;6.30;99.90;;;;;;20459099;29;20043;-52
2023/03/30 19:36:29;;;;;;;9.25;5.25;;;6.30;99.90;;;;;;20426245;29;20503;-52
2023/03/30 19:46:30;;;;;;;16.08;4.15;;;6.20;99.90;;;;;;20426104;29;20075;-51
2023/03/30 19:56:32;;;;;;;8.32;3.97;;;6.20;99.90;;;;;;20424569;29;20035;-49
2023/03/30 20:06:34;;;;;;;8.05;3.75;;;6.40;99.90;;;;;;20438912;29;20047;-50
2023/03/30 20:16:36;;;;;;;5.90;2.75;;;6.50;99.90;;;;;;20450606;29;20043;-52
2023/03/30 20:26:39;;;;;;;7.60;3.10;;;6.80;99.90;;;;;;20417186;29;20051;-52
2023/03/30 20:36:41;;;;;;;11.55;5.93;;;6.80;99.90;;;;;;20421753;29;20032;-52
2023/03/30 20:46:43;;;;;;;8.82;3.80;;;6.60;99.90;;;;;;20436113;29;20488;-50
2023/03/30 20:56:44;;;;;;;8.68;4.80;;;6.50;99.90;;;;;;20486567;29;20596;-51
2023/03/30 21:06:46;;;;;;;10.80;3.33;;;6.40;99.90;;;;;;20420682;29;20059;-52
2023/03/30 21:16:48;;;;;;;6.65;2.97;;;6.30;99.90;;;;;;20418393;29;20052;-51
2023/03/30 21:26:50;;;;;;;6.78;3.03;;;6.30;99.90;;;;;;20451763;29;20099;-51
2023/03/30 21:36:52;;;;;;;7.45;2.97;;;6.10;99.90;;;;;;20418840;29;20054;-52
2023/03/30 21:46:53;;;;;;;8.75;2.70;;;6.10;99.90;;;;;;20418267;29;20154;-51
2023/03/30 21:56:55;;;;;;;3.60;2.17;;;6.10;99.90;;;;;;20430815;29;20074;-52
2023/03/30 22:06:56;;;;;;;8.95;4.78;;;6.20;99.90;;;;;;20450841;29;20043;-49
2023/03/30 22:16:58;;;;;;;5.20;3.00;;;6.20;99.90;;;;;;20456800;29;20040;-53
2023/03/30 22:27:00;;;;;;;17.77;9.80;;;5.90;99.90;;;;;;20426136;29;20067;-50
2023/03/30 22:37:02;;;;;;;27.75;16.52;;;5.60;99.90;;;;;;20430720;29;20047;-48
2023/03/30 22:47:04;;;;;;;35.72;19.92;;;5.20;99.90;;;;;;20448576;29;20039;-52
2023/03/30 22:57:06;;;;;;;36.03;20.33;;;4.80;99.90;;;;;;20492515;29;20035;-53
2023/03/30 23:07:08;;;;;;;32.38;18.75;;;4.60;99.90;;;;;;20427968;29;20118;-51
2023/03/30 23:17:09;;;;;;;40.47;25.20;;;4.60;99.90;;;;;;20427462;29;20032;-53
2023/03/30 23:27:11;;;;;;;32.85;19.95;;;4.80;99.90;;;;;;20459553;29;20035;-50
2023/03/30 23:37:13;;;;;;;32.50;19.80;;;4.70;99.90;;;;;;20426103;29;20032;-51
2023/03/30 23:47:15;;;;;;;42.50;23.98;;;4.60;99.90;;;;;;20425149;29;20039;-48
2023/03/30 23:57:17;;;;;;;46.55;26.85;;;4.80;99.90;;;;;;20424405;29;20035;-53
